Terminal Aerodrome Forecast
Issued by NWS Missoula, MT

Home | Current Version | Previous Version | Text Only | Print | Product List | Glossary On
Versions: 1 2 3 4 5 6 7 8 9 10 11 12 13 14 15 16 17
867
FTUS45 KMSO 021738
TAFBTM
TAF
KBTM 021738Z 0218/0318 VRB02KT P6SM BKN050
     FM022100 VRB05KT P6SM SCT100
     FM030300 VRB05KT P6SM OVC080=

USA.gov is the U.S. government's official web portal to all federal, state and local government web resources and services.